createdAt,value
2023-02-04T06:39:49.655Z,-2.80
2023-02-04T06:42:16.906Z,-2.80
2023-02-04T06:44:44.080Z,-2.70
2023-02-04T06:47:11.310Z,-2.70
2023-02-04T06:49:38.340Z,-2.90
2023-02-04T06:52:05.945Z,-2.90
2023-02-04T07:55:35.298Z,-0.90
2023-02-04T07:58:02.495Z,-0.20
2023-02-04T08:00:29.883Z,0.70
2023-02-04T08:02:57.127Z,1.00
2023-02-04T08:05:24.690Z,0.90
2023-02-04T08:07:51.780Z,1.10
2023-02-04T08:10:18.891Z,1.90
2023-02-04T08:12:45.877Z,2.20
2023-02-04T08:15:13.382Z,2.20
2023-02-04T08:17:40.552Z,2.60
2023-02-04T08:20:09.871Z,2.40
2023-02-04T08:22:37.000Z,2.50
2023-02-04T08:25:05.499Z,3.00
2023-02-04T08:27:32.478Z,2.60
2023-02-04T08:29:59.514Z,2.30
2023-02-04T08:32:27.904Z,1.50
2023-02-04T08:34:55.313Z,1.10
2023-02-04T08:37:22.843Z,0.60
2023-02-04T08:39:52.845Z,1.80
2023-02-04T08:42:20.132Z,2.30
2023-02-04T08:44:47.363Z,1.50
2023-02-04T08:47:15.191Z,0.70
2023-02-04T08:49:42.543Z,-0.10
2023-02-04T08:52:09.777Z,-0.90
2023-02-04T08:54:36.897Z,-1.30
2023-02-04T08:57:04.349Z,-0.80
2023-02-04T08:59:31.601Z,-0.80
2023-02-04T09:01:58.680Z,-1.30
2023-02-04T09:04:26.276Z,-1.40
2023-02-04T09:06:53.464Z,-0.80
2023-02-04T09:09:22.785Z,-0.20
2023-02-04T09:11:50.392Z,0.30
2023-02-04T09:14:17.446Z,0.60
2023-02-04T09:16:44.544Z,1.10
2023-02-04T09:19:13.223Z,1.70
2023-02-04T09:21:40.295Z,2.20
2023-02-04T09:24:07.601Z,2.90
2023-02-04T09:26:34.571Z,3.00
2023-02-04T09:29:01.519Z,1.90
2023-02-04T09:31:28.688Z,1.70
2023-02-04T09:33:55.811Z,2.20
2023-02-04T09:36:22.806Z,2.00
2023-02-04T09:38:53.391Z,2.30
2023-02-04T09:41:21.058Z,2.50
2023-02-04T09:43:49.310Z,1.90
2023-02-04T09:46:22.423Z,1.70
2023-02-04T09:48:50.592Z,1.20
2023-02-04T09:51:29.730Z,0.40
2023-02-04T09:54:21.833Z,0.40
2023-02-04T09:56:49.384Z,1.40
2023-02-04T09:59:20.290Z,2.80
2023-02-04T10:02:11.709Z,3.10
2023-02-04T10:04:38.770Z,3.10
2023-02-04T10:07:12.293Z,2.90
2023-02-04T10:09:40.784Z,1.80
2023-02-04T10:12:08.150Z,1.50
2023-02-04T10:14:35.112Z,2.30
2023-02-04T10:17:02.456Z,2.00
2023-02-04T10:19:30.929Z,1.70
2023-02-04T10:21:58.525Z,1.20
2023-02-04T10:24:26.730Z,0.60
2023-02-04T10:26:54.657Z,1.50
2023-02-04T10:29:25.971Z,2.20
2023-02-04T10:31:54.017Z,2.60
2023-02-04T10:34:33.546Z,2.40
2023-02-04T10:37:11.326Z,2.80
2023-02-04T10:39:46.561Z,3.30
2023-02-04T10:42:24.109Z,4.50
2023-02-04T10:44:51.826Z,4.30
2023-02-04T10:47:29.097Z,4.00
2023-02-04T10:50:23.419Z,3.40
2023-02-04T10:53:16.628Z,3.20
2023-02-04T10:55:48.154Z,3.50
2023-02-04T10:58:20.523Z,4.40
2023-02-04T11:00:47.470Z,3.10
2023-02-04T11:03:23.870Z,3.30
2023-02-04T11:05:51.846Z,2.80
2023-02-04T11:08:33.774Z,3.40
2023-02-04T11:11:17.084Z,2.40
2023-02-04T11:13:50.688Z,3.10
2023-02-04T11:16:17.879Z,3.40
2023-02-04T11:18:52.198Z,2.50
2023-02-04T11:21:28.250Z,2.10
2023-02-04T11:24:24.379Z,2.60
2023-02-04T11:26:54.713Z,3.20
2023-02-04T11:29:34.885Z,4.30
2023-02-04T11:32:05.653Z,3.20
2023-02-04T11:34:46.035Z,2.20
2023-02-04T11:37:20.344Z,0.80
2023-02-04T11:39:51.142Z,0.90
2023-02-04T11:42:41.495Z,1.00
2023-02-04T11:45:18.252Z,0.90
2023-02-04T11:47:47.030Z,0.70
2023-02-04T11:50:21.316Z,0.50
2023-02-04T11:52:48.344Z,0.30
2023-02-04T11:55:15.390Z,0.40
2023-02-04T11:57:44.077Z,0.30
2023-02-04T12:00:15.718Z,0.70
2023-02-04T12:02:47.041Z,0.50
2023-02-04T12:05:19.679Z,0.80
2023-02-04T12:07:49.654Z,1.40
2023-02-04T12:10:27.310Z,2.40
2023-02-04T12:12:58.327Z,1.90
2023-02-04T12:15:39.065Z,1.20
2023-02-04T12:18:08.171Z,1.00
2023-02-04T12:20:36.423Z,0.40
2023-02-04T12:23:04.623Z,1.00
2023-02-04T12:25:32.589Z,1.60
2023-02-04T12:28:00.008Z,1.40
2023-02-04T12:30:28.087Z,1.30
2023-02-04T12:32:55.115Z,0.90
2023-02-04T12:35:22.097Z,0.90
2023-02-04T12:37:49.343Z,1.10
2023-02-04T12:40:19.669Z,1.40
2023-02-04T12:42:46.970Z,1.00
2023-02-04T12:45:15.728Z,1.10
2023-02-04T12:47:43.488Z,0.80
2023-02-04T12:50:12.989Z,0.50
2023-02-04T12:52:40.410Z,0.60
2023-02-04T12:55:09.246Z,0.30
2023-02-04T12:57:36.640Z,0.60
2023-02-04T13:00:04.881Z,0.40
2023-02-04T13:02:31.872Z,0.30
2023-02-04T13:04:59.051Z,0.80
2023-02-04T13:07:26.082Z,0.50
2023-02-04T13:09:56.460Z,0.80
2023-02-04T13:12:23.650Z,0.70
2023-02-04T13:14:50.612Z,0.10
2023-02-04T13:17:17.945Z,0.00
2023-02-04T13:19:44.984Z,0.00
2023-02-04T13:22:12.039Z,0.00
2023-02-04T13:24:39.029Z,-0.20
2023-02-04T13:27:06.008Z,-0.20
2023-02-04T13:29:33.017Z,-0.20
2023-02-04T13:32:00.341Z,-0.20
2023-02-04T13:34:27.295Z,-0.40
2023-02-04T13:36:54.266Z,-0.50
2023-02-04T13:39:21.220Z,-0.30
2023-02-04T13:41:48.151Z,-0.20
2023-02-04T13:44:15.177Z,-0.40
2023-02-04T13:46:42.092Z,-0.40
2023-02-04T13:49:09.058Z,-0.10
2023-02-04T13:51:36.093Z,-0.10
2023-02-04T13:54:03.355Z,0.00
2023-02-04T13:56:32.968Z,0.10
2023-02-04T13:59:00.093Z,0.00
2023-02-04T14:01:27.096Z,0.10
2023-02-04T14:03:54.192Z,0.10
2023-02-04T14:06:35.332Z,0.20
2023-02-04T14:09:02.852Z,-0.20
2023-02-04T14:11:30.121Z,-0.30
2023-02-04T14:13:57.106Z,-0.50
2023-02-04T14:16:24.759Z,-0.40
2023-02-04T14:18:52.093Z,-0.40
2023-02-04T14:21:19.255Z,-0.50
2023-02-04T14:23:46.230Z,-0.40
2023-02-04T14:26:13.404Z,-0.70
2023-02-04T14:28:40.626Z,-0.70
2023-02-04T14:31:07.694Z,-0.50
2023-02-04T14:33:34.669Z,-0.50
2023-02-04T14:36:01.707Z,-0.40
2023-02-04T14:38:31.064Z,0.00
2023-02-04T14:40:58.880Z,-0.20
2023-02-04T14:43:26.545Z,-0.50
2023-02-04T14:45:53.733Z,-0.70
2023-02-04T14:48:20.910Z,-1.50
2023-02-04T14:50:48.147Z,-1.50
2023-02-04T14:53:15.333Z,-1.70
2023-02-04T14:55:42.497Z,-1.70
2023-02-04T14:58:09.536Z,-1.80
2023-02-04T15:00:36.588Z,-2.00
2023-02-04T15:03:03.718Z,-2.00
2023-02-04T15:05:30.808Z,-2.30
2023-02-04T15:07:57.774Z,-2.00
2023-02-04T15:10:25.079Z,-2.20
2023-02-04T15:12:52.737Z,-2.20
2023-02-04T15:15:19.863Z,-2.10
2023-02-04T15:17:47.259Z,-2.30
2023-02-04T15:20:14.223Z,-2.30
2023-02-04T15:22:41.259Z,-2.20
2023-02-04T15:25:08.448Z,-2.50
2023-02-04T15:27:35.378Z,-2.60
2023-02-04T15:30:02.405Z,-2.40
2023-02-04T15:32:29.412Z,-2.40
2023-02-04T15:34:56.339Z,-2.50
2023-02-04T15:37:23.284Z,-2.60
2023-02-04T15:39:50.307Z,-2.30
2023-02-04T15:42:17.276Z,-2.60
2023-02-04T15:44:44.233Z,-2.50
2023-02-04T15:47:11.181Z,-2.60
2023-02-04T15:49:38.105Z,-2.60
2023-02-04T15:52:07.154Z,-2.70
2023-02-04T15:54:38.028Z,-2.60
2023-02-04T15:57:04.986Z,-3.00
2023-02-04T15:59:32.067Z,-2.80
2023-02-04T16:01:59.118Z,-2.80
2023-02-04T16:04:26.066Z,-2.70
2023-02-04T16:06:58.444Z,-2.80
2023-02-04T16:09:26.326Z,-2.80
2023-02-04T16:11:53.355Z,-2.90
2023-02-04T16:14:20.369Z,-3.10
2023-02-04T16:16:47.557Z,-3.00
2023-02-04T16:19:14.578Z,-3.00
2023-02-04T16:21:41.581Z,-2.70
2023-02-04T16:24:08.878Z,-2.80
2023-02-04T16:26:35.916Z,-2.70
2023-02-04T16:29:03.080Z,-2.60
2023-02-04T16:31:30.134Z,-2.50
2023-02-04T16:33:57.195Z,-2.70
2023-02-04T16:36:24.247Z,-2.30
2023-02-04T16:38:51.265Z,-2.70
2023-02-04T16:41:18.261Z,-2.70
2023-02-04T16:43:45.289Z,-2.80
2023-02-04T16:46:16.245Z,-2.70
2023-02-04T16:48:43.257Z,-2.50
2023-02-04T16:51:11.611Z,-2.40
2023-02-04T16:53:39.633Z,-2.50
2023-02-04T16:56:07.095Z,-2.50
2023-02-04T16:58:34.082Z,-2.40
2023-02-04T17:01:01.010Z,-2.50
2023-02-04T17:03:28.591Z,-2.40
2023-02-04T17:05:55.518Z,-2.50
2023-02-04T17:08:22.634Z,-2.50
2023-02-04T17:11:08.112Z,-2.50
2023-02-04T17:13:35.215Z,-2.40
2023-02-04T17:16:02.530Z,-2.50
2023-02-04T17:18:33.375Z,-2.50
2023-02-04T17:21:00.833Z,-2.50
2023-02-04T17:23:29.034Z,-2.40
2023-02-04T17:25:56.292Z,-2.40
2023-02-04T17:28:24.375Z,-2.50
2023-02-04T17:30:51.422Z,-2.40
2023-02-04T17:33:18.565Z,-2.30
2023-02-04T17:35:45.543Z,-2.30
2023-02-04T17:38:12.585Z,-2.30
2023-02-04T17:40:39.511Z,-2.30
2023-02-04T17:43:07.709Z,-2.20
2023-02-04T17:45:35.718Z,-2.30
2023-02-04T17:48:02.911Z,-2.20
2023-02-04T17:50:30.809Z,-2.20
2023-02-04T17:52:58.127Z,-2.20
2023-02-04T17:55:30.997Z,-2.10
2023-02-04T17:58:01.888Z,-2.30
2023-02-04T18:00:31.560Z,-2.20
2023-02-04T18:02:59.101Z,-2.10
2023-02-04T18:05:30.877Z,-2.10
2023-02-04T18:08:11.683Z,-2.20
2023-02-04T18:10:45.135Z,-2.00
2023-02-04T18:13:21.347Z,-2.00
2023-02-04T18:15:56.489Z,-2.20
2023-02-04T18:18:38.272Z,-2.20
2023-02-04T18:21:17.756Z,-2.20
2023-02-04T18:23:46.106Z,-2.10
2023-02-04T18:26:18.884Z,-2.10
2023-02-04T18:28:48.457Z,-2.00
2023-02-04T18:31:37.849Z,-2.10
2023-02-04T18:34:20.676Z,-2.10
2023-02-04T18:36:48.908Z,-2.00
2023-02-04T18:39:19.920Z,-2.10
2023-02-04T18:41:51.891Z,-2.20
2023-02-04T18:44:25.905Z,-2.10
2023-02-04T18:46:54.321Z,-2.30
2023-02-04T18:49:32.881Z,-2.20
2023-02-04T18:52:06.572Z,-2.30
2023-02-04T18:54:39.096Z,-2.30
2023-02-04T18:57:28.937Z,-2.40
2023-02-04T19:00:11.425Z,-2.20
2023-02-04T19:03:02.442Z,-2.20
2023-02-04T19:05:41.567Z,-2.20
2023-02-04T19:08:35.434Z,-2.30
2023-02-04T19:11:02.745Z,-2.30
2023-02-04T19:13:40.405Z,-2.30
2023-02-04T19:16:17.017Z,-2.40
2023-02-04T19:18:44.894Z,-2.50
2023-02-04T19:21:22.678Z,-2.50
2023-02-04T19:23:50.996Z,-2.70
2023-02-04T19:26:38.919Z,-2.60
2023-02-04T19:29:29.947Z,-2.70
2023-02-04T19:32:10.681Z,-2.80
2023-02-04T19:34:39.004Z,-2.70
2023-02-04T19:37:27.841Z,-2.90
2023-02-04T19:39:55.900Z,-2.80
2023-02-04T19:42:33.557Z,-3.00
2023-02-04T19:45:18.684Z,-3.10
2023-02-04T19:47:46.135Z,-3.10
2023-02-04T19:50:13.550Z,-3.20
2023-02-04T19:53:02.026Z,-3.40
2023-02-04T19:55:50.669Z,-3.40
2023-02-04T19:58:27.383Z,-3.50
2023-02-04T20:00:59.833Z,-3.50
2023-02-04T20:03:42.929Z,-3.50
2023-02-04T20:06:09.867Z,-3.60
2023-02-04T20:08:39.885Z,-3.70
2023-02-04T20:11:21.869Z,-3.80
2023-02-04T20:13:50.657Z,-3.80
2023-02-04T20:16:36.268Z,-3.70
2023-02-04T20:19:23.097Z,-3.60
2023-02-04T20:22:19.043Z,-3.70
2023-02-04T20:24:49.167Z,-3.50
2023-02-04T20:27:38.158Z,-3.60
2023-02-04T20:30:08.627Z,-3.60
2023-02-04T20:32:41.647Z,-3.50
2023-02-04T20:35:14.561Z,-3.70
2023-02-04T20:37:43.160Z,-3.80
2023-02-04T20:40:29.018Z,-3.70
2023-02-04T20:43:01.981Z,-3.60
2023-02-04T20:45:38.780Z,-3.70
2023-02-04T20:48:18.353Z,-3.80
2023-02-04T20:50:48.130Z,-3.80
2023-02-04T20:53:24.256Z,-4.00
2023-02-04T20:55:53.032Z,-4.00
2023-02-04T20:58:41.566Z,-4.00
2023-02-04T21:01:33.925Z,-4.10
2023-02-04T21:04:19.830Z,-4.20
2023-02-04T21:06:47.093Z,-4.20
2023-02-04T21:09:34.217Z,-4.20
2023-02-04T21:12:02.540Z,-4.20
2023-02-04T21:14:30.376Z,-4.20
2023-02-04T21:16:57.915Z,-4.10
2023-02-04T21:19:28.299Z,-4.20
2023-02-04T21:21:57.514Z,-4.20
2023-02-04T21:24:25.885Z,-4.30
2023-02-04T21:26:54.547Z,-4.40
2023-02-04T21:29:21.635Z,-4.40
2023-02-04T21:31:48.692Z,-4.50
2023-02-04T21:34:22.368Z,-4.60
2023-02-04T21:36:52.296Z,-4.60
2023-02-04T21:39:24.305Z,-4.60
2023-02-04T21:42:12.214Z,-4.70
2023-02-04T21:44:39.922Z,-4.70
2023-02-04T21:47:07.025Z,-4.70
2023-02-04T21:49:34.036Z,-4.90
2023-02-04T21:52:00.978Z,-4.90
2023-02-04T21:54:27.923Z,-5.00
2023-02-04T21:56:54.957Z,-5.00
2023-02-04T21:59:22.696Z,-5.00
2023-02-04T22:01:49.926Z,-5.10
2023-02-04T22:04:17.101Z,-5.10
2023-02-04T22:06:44.134Z,-5.10
2023-02-04T22:09:11.174Z,-5.10
2023-02-04T22:11:38.151Z,-5.10
2023-02-04T22:14:23.933Z,-5.20
2023-02-04T22:16:50.896Z,-5.30
2023-02-04T22:19:17.858Z,-5.30
2023-02-04T22:21:44.804Z,-5.40
2023-02-04T22:24:11.754Z,-5.40
2023-02-04T22:26:38.772Z,-5.50
2023-02-04T22:29:05.965Z,-5.40
2023-02-04T22:31:33.047Z,-5.50
2023-02-04T22:34:00.030Z,-5.40
2023-02-04T22:36:27.107Z,-5.60
2023-02-04T22:38:54.128Z,-5.60
2023-02-04T22:41:21.044Z,-5.60
2023-02-04T22:43:47.995Z,-5.50
2023-02-04T22:46:14.924Z,-5.60
2023-02-04T22:48:41.979Z,-5.70
2023-02-04T22:51:08.969Z,-5.70
2023-02-04T22:53:35.914Z,-5.70
2023-02-04T22:56:02.862Z,-5.70
2023-02-04T22:58:29.799Z,-5.70
2023-02-04T23:00:56.842Z,-5.70
2023-02-04T23:03:23.888Z,-5.80
2023-02-04T23:05:50.932Z,-5.80
2023-02-04T23:08:19.126Z,-5.80
2023-02-04T23:10:46.715Z,-5.80
2023-02-04T23:13:14.174Z,-5.90
2023-02-04T23:15:41.109Z,-5.90
2023-02-04T23:18:08.802Z,-5.90
2023-02-04T23:20:38.342Z,-6.00
2023-02-04T23:23:06.063Z,-5.90
2023-02-04T23:25:37.152Z,-5.90
2023-02-04T23:28:04.256Z,-6.00
2023-02-04T23:30:31.311Z,-5.90
2023-02-04T23:32:58.326Z,-5.90
2023-02-04T23:35:25.410Z,-6.00
2023-02-04T23:37:52.329Z,-6.00
2023-02-04T23:40:19.417Z,-6.00
2023-02-04T23:42:46.329Z,-6.00
2023-02-04T23:45:13.495Z,-6.00
2023-02-04T23:47:40.475Z,-6.00
2023-02-04T23:50:08.176Z,-6.00
2023-02-04T23:52:35.163Z,-6.10
2023-02-04T23:55:02.120Z,-6.00
2023-02-04T23:57:29.032Z,-6.10
2023-02-04T23:59:55.971Z,-6.10
